Time;durP1;ratioP1;P1;durP2;ratioP2;P2;SDS_P1;SDS_P2;PMS_P1;PMS_P2;Temp;Humidity;BMP_temperature;BMP_pressure;BME280_temperature;BME280_humidity;BME280_pressure;Samples;Min_cycle;Max_cycle;Signal;HPM_P1;HPM_P2
2021/09/19 00:02:18;;;;;;;10.73;6.60;;;;;;;13.79;100.00;95032.47;5070893;28;20043;-67
2021/09/19 00:04:45;;;;;;;10.30;6.65;;;;;;;13.92;100.00;95029.50;5083505;28;20132;-68
2021/09/19 00:07:12;;;;;;;11.27;6.10;;;;;;;13.93;100.00;95020.59;5068781;28;20048;-68
2021/09/19 00:09:38;;;;;;;12.23;6.97;;;;;;;14.04;100.00;95025.94;5078786;28;20048;-69
2021/09/19 00:12:06;;;;;;;10.82;5.57;;;;;;;14.07;100.00;95041.16;5086951;28;20037;-69
2021/09/19 00:14:34;;;;;;;9.15;6.03;;;;;;;14.03;100.00;95024.38;5072954;28;20040;-69
2021/09/19 00:17:02;;;;;;;10.98;5.60;;;;;;;14.06;100.00;95029.09;5075514;28;20052;-69
2021/09/19 00:19:29;;;;;;;11.13;5.97;;;;;;;14.13;100.00;95040.16;5069959;28;20044;-69
2021/09/19 00:21:56;;;;;;;14.05;6.95;;;;;;;14.13;100.00;95048.00;5087700;28;20044;-69
2021/09/19 00:24:23;;;;;;;9.20;5.40;;;;;;;14.13;100.00;95059.31;5070484;28;20041;-70
2021/09/19 00:26:50;;;;;;;9.98;5.15;;;;;;;14.00;100.00;95064.13;5067254;28;20039;-69
2021/09/19 00:29:17;;;;;;;7.47;4.30;;;;;;;13.72;100.00;95034.50;5074863;28;20036;-69
2021/09/19 00:31:44;;;;;;;8.65;5.40;;;;;;;13.53;100.00;95052.34;5068857;28;20425;-68
2021/09/19 00:34:11;;;;;;;8.90;5.30;;;;;;;13.41;100.00;95055.06;5069437;28;20032;-69
2021/09/19 00:36:38;;;;;;;10.30;5.20;;;;;;;13.44;100.00;95044.13;5072504;28;20405;-69
2021/09/19 00:39:05;;;;;;;9.30;5.30;;;;;;;13.56;100.00;95026.50;5083149;28;20048;-69
2021/09/19 00:41:32;;;;;;;8.57;4.75;;;;;;;13.63;100.00;95025.50;5079329;28;20052;-70
2021/09/19 00:44:04;;;;;;;8.43;4.97;;;;;;;13.76;100.00;95020.69;5067129;28;20040;-70
2021/09/19 00:46:31;;;;;;;8.82;5.18;;;;;;;13.75;100.00;95007.84;5069928;28;20141;-69
2021/09/19 00:48:58;;;;;;;7.88;5.63;;;;;;;13.85;100.00;94996.69;5075906;28;20473;-70
2021/09/19 00:51:26;;;;;;;7.45;4.70;;;;;;;13.94;100.00;94985.53;5067166;28;20570;-70
2021/09/19 00:53:55;;;;;;;9.07;5.45;;;;;;;14.12;100.00;94999.31;5085871;28;20111;-70
2021/09/19 00:56:26;;;;;;;8.13;5.38;;;;;;;13.99;100.00;94997.06;5075666;28;20406;-70
2021/09/19 00:58:55;;;;;;;8.20;4.85;;;;;;;13.94;100.00;94989.97;5086522;28;20050;-70
2021/09/19 01:01:22;;;;;;;7.32;4.93;;;;;;;13.92;100.00;94982.38;5074391;28;20098;-70
2021/09/19 01:03:49;;;;;;;9.20;5.28;;;;;;;13.99;100.00;94965.66;5074825;28;20505;-70
2021/09/19 01:06:16;;;;;;;8.10;4.78;;;;;;;13.94;100.00;94985.53;5081338;28;20515;-70
2021/09/19 01:08:44;;;;;;;7.00;4.93;;;;;;;13.86;100.00;94987.78;5077603;28;20516;-71
2021/09/19 01:11:16;;;;;;;9.10;5.32;;;;;;;13.86;100.00;94972.84;5082082;28;20040;-71
2021/09/19 01:13:45;;;;;;;10.45;5.78;;;;;;;13.89;100.00;94974.22;5076537;28;20093;-70
2021/09/19 01:16:14;;;;;;;7.53;4.50;;;;;;;14.05;100.00;94980.38;5080421;28;20060;-70
2021/09/19 01:18:42;;;;;;;6.15;4.53;;;;;;;14.19;100.00;94975.50;5073715;28;20062;-70
2021/09/19 01:21:10;;;;;;;7.22;4.72;;;;;;;14.38;100.00;94981.16;5074051;28;20040;-71
2021/09/19 01:23:39;;;;;;;8.25;4.90;;;;;;;14.29;100.00;94976.38;5078004;28;20036;-70
2021/09/19 01:26:06;;;;;;;12.13;4.88;;;;;;;14.30;100.00;94983.22;5072555;28;20048;-70
2021/09/19 01:28:33;;;;;;;6.57;4.30;;;;;;;14.32;100.00;94975.88;5083124;28;20044;-70
2021/09/19 01:31:00;;;;;;;8.20;4.70;;;;;;;14.05;100.00;94962.06;5080421;28;20497;-70
2021/09/19 01:33:27;;;;;;;7.20;4.63;;;;;;;13.95;100.00;94960.94;5069108;28;20118;-69
2021/09/19 01:35:58;;;;;;;7.22;4.65;;;;;;;14.00;100.00;94964.63;5079346;28;20421;-69
2021/09/19 01:38:24;;;;;;;8.48;5.30;;;;;;;13.92;100.00;94963.25;5070637;28;20079;-69
2021/09/19 01:40:51;;;;;;;8.10;5.40;;;;;;;13.88;100.00;94944.63;5073202;28;20051;-70
2021/09/19 01:43:18;;;;;;;6.82;4.43;;;;;;;13.94;100.00;94951.47;5079507;28;20044;-70
2021/09/19 01:45:45;;;;;;;7.80;4.60;;;;;;;13.83;100.00;94941.16;5070453;28;20513;-70
2021/09/19 01:48:12;;;;;;;6.45;4.40;;;;;;;13.85;100.00;94955.59;5072262;28;20181;-70
2021/09/19 01:50:39;;;;;;;7.90;4.53;;;;;;;13.75;100.00;94951.03;5078660;28;20063;-71
2021/09/19 01:53:06;;;;;;;9.38;4.95;;;;;;;13.52;100.00;94957.38;5071750;28;20094;-70
2021/09/19 01:55:33;;;;;;;10.00;5.32;;;;;;;13.29;100.00;94958.41;5071403;28;20078;-70
2021/09/19 01:58:00;;;;;;;11.25;5.82;;;;;;;13.03;100.00;94944.22;5067089;28;20040;-70
2021/09/19 02:00:27;;;;;;;9.23;5.30;;;;;;;13.12;100.00;94953.22;5068444;28;20047;-71
2021/09/19 02:02:54;;;;;;;9.95;5.43;;;;;;;12.85;100.00;94947.13;5084047;28;20036;-70
2021/09/19 02:05:22;;;;;;;8.80;5.55;;;;;;;12.57;100.00;94941.81;5085304;28;20040;-70
2021/09/19 02:07:49;;;;;;;7.80;5.60;;;;;;;12.73;100.00;94965.50;5068576;28;20093;-70
2021/09/19 02:10:18;;;;;;;8.05;5.00;;;;;;;12.77;100.00;94970.03;5070073;28;20044;-70
2021/09/19 02:12:45;;;;;;;9.60;6.15;;;;;;;12.77;100.00;94967.41;5067712;28;20146;-69
2021/09/19 02:15:13;;;;;;;8.55;5.30;;;;;;;12.80;100.00;94969.56;5081775;28;20040;-70
2021/09/19 02:17:40;;;;;;;9.63;5.63;;;;;;;12.80;100.00;94964.34;5069702;28;20085;-70
2021/09/19 02:20:11;;;;;;;10.52;6.03;;;;;;;12.76;100.00;94957.97;5077251;28;20520;-70
2021/09/19 02:22:38;;;;;;;14.02;7.55;;;;;;;12.72;100.00;94946.44;5075638;28;20044;-70
2021/09/19 02:25:06;;;;;;;19.02;9.77;;;;;;;12.77;100.00;94956.97;5075975;28;20048;-70
2021/09/19 02:27:35;;;;;;;17.02;8.98;;;;;;;12.77;100.00;94956.97;5074019;28;20101;-71
2021/09/19 02:30:05;;;;;;;18.55;9.15;;;;;;;12.86;100.00;94964.41;5070972;28;20040;-71
2021/09/19 02:32:32;;;;;;;19.10;9.85;;;;;;;12.85;100.00;94968.03;5066331;28;20045;-70
2021/09/19 02:34:58;;;;;;;19.30;10.18;;;;;;;12.88;100.00;94957.09;5073154;28;20497;-70
2021/09/19 02:37:26;;;;;;;18.95;10.63;;;;;;;12.95;100.00;94960.34;5076925;28;20549;-70
2021/09/19 02:39:53;;;;;;;13.95;8.45;;;;;;;12.96;100.00;94965.31;5071831;28;20048;-70
2021/09/19 02:42:20;;;;;;;17.50;9.20;;;;;;;12.98;100.00;94962.44;5067198;28;20532;-70
2021/09/19 02:44:47;;;;;;;12.43;7.55;;;;;;;12.96;100.00;94943.59;5070912;28;20040;-70
2021/09/19 02:47:14;;;;;;;18.55;8.13;;;;;;;13.16;100.00;94958.75;5077313;28;20434;-70
2021/09/19 02:49:40;;;;;;;14.52;8.90;;;;;;;13.11;100.00;94943.78;5068945;28;20540;-70
2021/09/19 02:52:07;;;;;;;13.52;7.00;;;;;;;13.27;100.00;94949.19;5070666;28;20040;-71
2021/09/19 02:54:34;;;;;;;12.00;6.65;;;;;;;13.36;100.00;94945.13;5072385;28;20040;-70
2021/09/19 02:57:01;;;;;;;11.15;6.90;;;;;;;13.45;100.00;94942.88;5074485;28;20045;-70
2021/09/19 02:59:28;;;;;;;17.67;8.40;;;;;;;13.45;100.00;94951.53;5076460;28;20047;-70
2021/09/19 03:01:55;;;;;;;12.65;8.18;;;;;;;13.35;100.00;94946.19;5070758;28;20048;-70
2021/09/19 03:04:22;;;;;;;11.68;6.50;;;;;;;13.35;100.00;94946.97;5073867;28;20045;-70
2021/09/19 03:06:49;;;;;;;12.32;6.80;;;;;;;13.38;100.00;94940.47;5078568;28;20098;-71
2021/09/19 03:09:15;;;;;;;10.07;5.30;;;;;;;13.34;100.00;94931.50;5076126;28;20421;-70
2021/09/19 03:11:42;;;;;;;10.82;6.10;;;;;;;13.22;100.00;94936.88;5083520;28;20039;-70
2021/09/19 03:14:09;;;;;;;10.68;5.93;;;;;;;13.24;100.00;94947.09;5074480;28;20039;-70
2021/09/19 03:16:36;;;;;;;11.18;6.28;;;;;;;13.02;100.00;94932.19;5071244;28;20060;-70
2021/09/19 03:19:03;;;;;;;12.02;6.53;;;;;;;13.21;100.00;94940.50;5063415;28;20421;-70
2021/09/19 03:21:30;;;;;;;9.85;6.25;;;;;;;13.32;100.00;94936.97;5074675;28;20105;-70
2021/09/19 03:24:00;;;;;;;9.95;6.20;;;;;;;13.43;100.00;94953.59;5075678;28;20048;-70
2021/09/19 03:26:30;;;;;;;8.60;5.57;;;;;;;13.50;100.00;94961.25;5074474;28;20489;-70
2021/09/19 03:28:58;;;;;;;8.48;5.00;;;;;;;13.48;100.00;94961.50;5078861;28;20048;-70
2021/09/19 03:31:25;;;;;;;10.68;6.60;;;;;;;13.49;100.00;94957.84;5083227;28;20048;-70
2021/09/19 03:33:59;;;;;;;9.05;5.82;;;;;;;13.44;100.00;94949.94;5074104;28;20489;-69
2021/09/19 03:36:40;;;;;;;7.97;5.13;;;;;;;13.20;100.00;94939.72;5076859;28;20048;-70
2021/09/19 03:39:09;;;;;;;9.30;5.10;;;;;;;13.28;100.00;94940.31;5082646;28;20524;-70
2021/09/19 03:41:35;;;;;;;7.95;5.40;;;;;;;13.13;100.00;94944.34;5081141;28;20935;-70
2021/09/19 03:44:04;;;;;;;8.80;5.30;;;;;;;13.12;100.00;94950.59;5067805;28;20043;-70
2021/09/19 03:46:30;;;;;;;9.52;6.53;;;;;;;13.28;100.00;94954.19;5078331;28;20048;-70
2021/09/19 03:48:57;;;;;;;8.68;5.47;;;;;;;13.37;100.00;94931.03;5079615;28;20048;-71
2021/09/19 03:51:24;;;;;;;12.10;6.03;;;;;;;13.43;100.00;94937.88;5082158;28;20043;-71
2021/09/19 03:53:52;;;;;;;11.35;5.70;;;;;;;13.04;100.00;94924.88;5074127;28;20036;-71
2021/09/19 03:56:19;;;;;;;14.18;7.28;;;;;;;12.93;100.00;94933.66;5081907;28;20044;-71
2021/09/19 03:58:46;;;;;;;12.40;7.45;;;;;;;12.93;100.00;94938.88;5076606;28;20498;-71
2021/09/19 04:01:13;;;;;;;9.77;6.07;;;;;;;12.86;100.00;94951.34;5080198;28;20521;-72
2021/09/19 04:03:40;;;;;;;11.35;6.38;;;;;;;12.84;100.00;94945.53;5079101;28;20049;-70
2021/09/19 04:06:08;;;;;;;12.10;6.90;;;;;;;12.91;100.00;94952.19;5078620;28;20052;-70
2021/09/19 04:08:35;;;;;;;10.45;6.70;;;;;;;12.90;100.00;94955.03;5078973;28;20040;-70
2021/09/19 04:11:02;;;;;;;11.27;7.28;;;;;;;12.89;100.00;94961.28;5079504;28;20055;-70
2021/09/19 04:13:28;;;;;;;12.00;7.45;;;;;;;12.79;100.00;94948.88;5071792;28;20041;-70
2021/09/19 04:15:55;;;;;;;15.10;6.35;;;;;;;12.77;100.00;94943.91;5077013;28;20413;-71
2021/09/19 04:18:22;;;;;;;14.18;7.40;;;;;;;12.86;100.00;94943.50;5078907;28;20044;-70
2021/09/19 04:20:49;;;;;;;11.85;7.22;;;;;;;12.92;100.00;94932.06;5067959;28;20098;-70
2021/09/19 04:23:16;;;;;;;10.82;6.70;;;;;;;12.80;100.00;94934.78;5075443;28;20052;-70
2021/09/19 04:25:43;;;;;;;11.65;7.47;;;;;;;12.78;100.00;94961.16;5073959;28;20048;-70
2021/09/19 04:28:09;;;;;;;13.05;6.50;;;;;;;12.84;100.00;94945.53;5082994;28;20049;-70
2021/09/19 04:30:36;;;;;;;10.15;6.35;;;;;;;13.04;100.00;94952.88;5070615;28;20052;-70
2021/09/19 04:33:03;;;;;;;12.80;7.40;;;;;;;13.00;100.00;94944.72;5077549;28;20040;-70
2021/09/19 04:35:30;;;;;;;12.38;7.20;;;;;;;13.18;100.00;94952.25;5067060;28;20037;-70
2021/09/19 04:37:57;;;;;;;15.07;7.68;;;;;;;13.28;100.00;94966.47;5069474;28;20040;-70
2021/09/19 04:40:24;;;;;;;12.55;7.18;;;;;;;13.30;100.00;94959.19;5079477;28;20040;-70
2021/09/19 04:42:50;;;;;;;12.45;6.78;;;;;;;13.33;100.00;94974.41;5073720;28;20074;-70
2021/09/19 04:45:17;;;;;;;10.70;6.53;;;;;;;13.28;100.00;94967.25;5069618;28;20512;-70
2021/09/19 04:47:44;;;;;;;14.32;7.40;;;;;;;13.38;100.00;94979.72;5071285;28;20417;-71
2021/09/19 04:50:12;;;;;;;16.13;6.95;;;;;;;13.47;100.00;94980.84;5071207;28;20624;-70
2021/09/19 04:52:39;;;;;;;12.77;7.45;;;;;;;13.35;100.00;94977.56;5077012;28;20044;-70
2021/09/19 04:55:07;;;;;;;15.45;7.50;;;;;;;13.35;100.00;94982.81;5075087;28;20047;-70
2021/09/19 04:57:34;;;;;;;13.95;7.35;;;;;;;13.37;100.00;94985.97;5068781;28;20056;-71
2021/09/19 05:00:03;;;;;;;13.02;7.47;;;;;;;13.34;100.00;94982.03;5069930;28;20040;-71
2021/09/19 05:02:30;;;;;;;15.70;8.40;;;;;;;13.54;100.00;94991.94;5070828;28;20049;-70
2021/09/19 05:04:57;;;;;;;15.88;7.97;;;;;;;13.58;100.00;94977.31;5066423;28;20123;-70
2021/09/19 05:07:24;;;;;;;12.73;8.32;;;;;;;13.51;100.00;94975.94;5071998;28;20535;-70
2021/09/19 05:09:50;;;;;;;17.75;8.13;;;;;;;13.45;100.00;94967.22;5082057;28;20044;-70
2021/09/19 05:12:17;;;;;;;13.75;7.72;;;;;;;13.35;100.00;94956.66;5085454;28;20044;-70
2021/09/19 05:14:44;;;;;;;15.93;7.72;;;;;;;13.42;100.00;94962.47;5075470;28;20046;-70
2021/09/19 05:17:11;;;;;;;16.17;8.73;;;;;;;13.45;100.00;94967.22;5080736;28;20125;-70
2021/09/19 05:19:38;;;;;;;14.82;8.45;;;;;;;13.43;100.00;94974.50;5079015;28;20036;-70
2021/09/19 05:22:04;;;;;;;16.02;9.30;;;;;;;13.48;100.00;94966.72;5074546;28;20050;-71
2021/09/19 05:24:31;;;;;;;17.88;8.63;;;;;;;13.42;100.00;94946.78;5072132;28;20037;-71
2021/09/19 05:26:58;;;;;;;14.05;8.60;;;;;;;13.43;100.00;94953.59;5080861;28;20101;-70
2021/09/19 05:29:25;;;;;;;14.70;8.68;;;;;;;13.41;100.00;94955.66;5072492;28;20048;-70
2021/09/19 05:31:52;;;;;;;15.75;8.27;;;;;;;13.38;100.00;94966.63;5074192;28;20068;-70
2021/09/19 05:34:19;;;;;;;16.77;9.15;;;;;;;13.37;100.00;94959.81;5073723;28;20466;-70
2021/09/19 05:36:46;;;;;;;17.65;8.77;;;;;;;13.31;100.00;94955.56;5075168;28;20040;-70
2021/09/19 05:39:12;;;;;;;16.33;9.40;;;;;;;13.46;100.00;94955.72;5083956;28;20046;-70
2021/09/19 05:41:39;;;;;;;18.15;10.27;;;;;;;13.46;100.00;94958.34;5084006;28;20044;-70
2021/09/19 05:44:06;;;;;;;20.10;11.35;;;;;;;13.43;100.00;94947.56;5076154;28;20072;-70
2021/09/19 05:46:33;;;;;;;19.63;10.95;;;;;;;13.43;100.00;94953.59;5069959;28;20044;-70
2021/09/19 05:49:00;;;;;;;25.60;11.82;;;;;;;13.63;100.00;94962.69;5066844;28;20048;-71
2021/09/19 05:51:27;;;;;;;18.35;10.77;;;;;;;13.51;100.00;94955.78;5068532;28;20044;-71
2021/09/19 05:53:54;;;;;;;16.05;9.10;;;;;;;13.42;100.00;94941.56;5065398;28;20056;-71
2021/09/19 05:56:21;;;;;;;15.07;8.65;;;;;;;13.60;100.00;94952.72;5066341;28;20040;-71
2021/09/19 05:58:48;;;;;;;16.45;9.93;;;;;;;13.87;100.00;94953.50;5080923;28;20040;-71
2021/09/19 06:01:15;;;;;;;14.43;8.55;;;;;;;13.92;100.00;94945.72;5074198;28;20064;-71
2021/09/19 06:03:42;;;;;;;18.33;9.65;;;;;;;14.01;100.00;94938.19;5069554;28;20058;-71
2021/09/19 06:06:09;;;;;;;15.55;9.02;;;;;;;14.15;100.00;94938.53;5063207;28;20037;-71
2021/09/19 06:08:36;;;;;;;16.58;9.55;;;;;;;14.29;100.00;94944.94;5066008;28;20093;-71
2021/09/19 06:11:03;;;;;;;15.77;8.90;;;;;;;14.42;100.00;94945.56;5064736;28;20059;-70
2021/09/19 06:13:30;;;;;;;16.80;9.85;;;;;;;14.54;100.00;94946.16;5068375;28;20094;-71
2021/09/19 06:15:57;;;;;;;13.00;9.00;;;;;;;14.52;100.00;94933.31;5079680;28;20837;-71
2021/09/19 06:18:24;;;;;;;13.60;8.90;;;;;;;14.68;100.00;94946.53;5081292;28;20037;-71
2021/09/19 06:20:51;;;;;;;13.75;8.57;;;;;;;14.70;100.00;94940.00;5076162;28;20059;-71
2021/09/19 06:23:18;;;;;;;14.43;8.05;;;;;;;14.75;100.00;94935.81;5073897;28;20055;-71
2021/09/19 06:25:45;;;;;;;15.88;8.68;;;;;;;14.81;100.00;94932.97;5077903;28;20050;-71
2021/09/19 06:28:12;;;;;;;13.82;8.10;;;;;;;14.74;100.00;94929.78;5064371;28;20047;-71
2021/09/19 06:30:39;;;;;;;16.10;9.65;;;;;;;14.92;100.00;94936.44;5071924;28;20067;-71
2021/09/19 06:33:06;;;;;;;13.23;8.25;;;;;;;15.17;100.00;94948.09;5074335;28;20110;-71
2021/09/19 06:35:32;;;;;;;13.82;6.88;;;;;;;15.32;100.00;94955.22;5074151;28;20082;-71
2021/09/19 06:37:59;;;;;;;11.50;6.95;;;;;;;15.31;99.85;94941.31;5068407;28;20417;-72
2021/09/19 06:40:26;;;;;;;11.60;6.78;;;;;;;15.38;99.22;94952.38;5078890;28;20056;-71
2021/09/19 06:42:53;;;;;;;9.77;6.13;;;;;;;15.32;98.58;94948.13;5074216;28;20037;-71
2021/09/19 06:45:19;;;;;;;8.68;6.00;;;;;;;15.41;98.66;94959.72;5071548;28;20498;-71
2021/09/19 06:47:46;;;;;;;11.18;6.88;;;;;;;15.45;96.25;94960.00;5077862;28;20075;-71
2021/09/19 06:50:13;;;;;;;8.85;6.50;;;;;;;15.60;94.06;94959.25;5075254;28;20089;-71
2021/09/19 06:52:40;;;;;;;11.00;6.63;;;;;;;15.72;95.91;94957.19;5074192;28;20063;-71
2021/09/19 06:55:08;;;;;;;14.13;7.10;;;;;;;15.91;96.25;94961.97;5070083;28;20056;-71
2021/09/19 06:57:36;;;;;;;9.73;7.00;;;;;;;16.08;96.68;94962.53;5081185;28;20048;-71
2021/09/19 07:00:04;;;;;;;9.95;7.03;;;;;;;16.20;96.36;94970.91;5074363;28;20047;-72
2021/09/19 07:02:31;;;;;;;9.88;6.32;;;;;;;16.31;94.65;94960.41;5081156;28;20386;-71
2021/09/19 07:04:59;;;;;;;9.05;5.45;;;;;;;16.39;92.42;94965.16;5081612;28;20049;-71
2021/09/19 07:07:26;;;;;;;9.95;5.45;;;;;;;16.39;89.59;94952.00;5076392;28;20449;-72
2021/09/19 07:09:53;;;;;;;8.63;5.97;;;;;;;16.40;89.17;94958.81;5082885;28;20117;-72
2021/09/19 07:12:20;;;;;;;10.55;6.07;;;;;;;16.39;88.65;94962.53;5077102;28;20052;-72
2021/09/19 07:14:47;;;;;;;9.00;5.55;;;;;;;16.31;88.35;94963.03;5078322;28;20059;-72
2021/09/19 07:17:14;;;;;;;8.70;6.30;;;;;;;16.27;88.76;94969.88;5078395;28;20170;-72
2021/09/19 07:19:41;;;;;;;8.82;5.82;;;;;;;16.28;88.82;94969.63;5071115;28;20064;-72
2021/09/19 07:22:07;;;;;;;11.98;7.28;;;;;;;16.30;87.93;94969.34;5086970;28;20059;-71
2021/09/19 07:24:35;;;;;;;15.00;10.20;;;;;;;16.38;90.37;94971.44;5081578;28;20048;-72
2021/09/19 07:27:04;;;;;;;11.70;7.03;;;;;;;16.23;91.09;94964.34;5071059;28;20040;-72
2021/09/19 07:29:32;;;;;;;9.85;5.72;;;;;;;16.14;88.64;94953.56;5084350;28;20448;-71
2021/09/19 07:32:01;;;;;;;9.80;5.43;;;;;;;16.43;87.96;94953.03;5080904;28;20037;-71
2021/09/19 07:34:29;;;;;;;8.38;5.68;;;;;;;16.51;87.80;94955.16;5067940;28;20052;-72
2021/09/19 07:36:56;;;;;;;8.27;5.00;;;;;;;16.71;88.03;94958.78;5066497;28;20425;-71
2021/09/19 07:39:23;;;;;;;5.65;4.72;;;;;;;16.77;90.69;94955.09;5065812;28;20575;-72
2021/09/19 07:41:53;;;;;;;8.02;5.60;;;;;;;16.78;90.88;94954.03;5066208;28;20043;-71
2021/09/19 07:44:21;;;;;;;9.10;5.68;;;;;;;16.45;89.00;94971.97;5069867;28;20060;-72
2021/09/19 07:46:50;;;;;;;6.78;5.13;;;;;;;16.65;87.38;94970.38;5078171;28;20387;-72
2021/09/19 07:49:18;;;;;;;7.38;5.38;;;;;;;16.83;88.27;94961.94;5082546;28;20036;-72
2021/09/19 07:51:45;;;;;;;8.50;5.13;;;;;;;16.89;87.26;94966.16;5081920;28;20040;-72
2021/09/19 07:54:12;;;;;;;7.38;4.82;;;;;;;17.16;85.23;94978.16;5082153;28;20048;-72
2021/09/19 07:56:40;;;;;;;8.93;5.38;;;;;;;17.02;89.83;94979.81;5075798;28;20040;-72
2021/09/19 07:59:07;;;;;;;7.80;5.07;;;;;;;17.35;89.65;94987.03;5063335;28;20600;-72
2021/09/19 08:01:34;;;;;;;7.65;5.25;;;;;;;17.59;85.10;94983.78;5081712;28;20506;-72
2021/09/19 08:04:02;;;;;;;7.60;4.53;;;;;;;17.81;84.52;94986.06;5079395;28;20048;-72
2021/09/19 08:06:29;;;;;;;16.25;5.82;;;;;;;17.93;83.68;94989.19;5074616;28;20073;-71
2021/09/19 08:08:56;;;;;;;8.32;4.78;;;;;;;18.03;84.58;94982.25;5070709;28;20050;-72
2021/09/19 08:11:23;;;;;;;7.07;4.90;;;;;;;18.16;79.58;94986.91;5081358;28;20052;-72
2021/09/19 08:13:55;;;;;;;6.13;4.50;;;;;;;18.17;81.24;94987.69;5071450;28;20113;-72
2021/09/19 08:16:22;;;;;;;7.88;5.80;;;;;;;18.17;80.86;94982.41;5070981;28;20053;-71
2021/09/19 08:18:49;;;;;;;8.75;5.90;;;;;;;18.09;80.29;94992.47;5080324;28;20405;-71
2021/09/19 08:21:16;;;;;;;8.15;5.30;;;;;;;17.96;82.76;94983.34;5074358;28;20129;-71
2021/09/19 08:23:42;;;;;;;7.13;4.80;;;;;;;18.15;81.60;94991.41;5082692;28;20779;-71
2021/09/19 08:26:09;;;;;;;7.38;5.55;;;;;;;18.19;80.81;94980.31;5080864;28;20063;-72
2021/09/19 08:28:36;;;;;;;6.38;4.38;;;;;;;18.26;78.21;94993.97;5084165;28;20051;-72
2021/09/19 08:31:03;;;;;;;13.98;8.80;;;;;;;18.44;79.43;94993.28;5080623;28;20101;-72
2021/09/19 08:33:30;;;;;;;8.40;5.50;;;;;;;18.42;79.88;94998.06;5078285;28;20143;-72
2021/09/19 08:35:57;;;;;;;7.18;5.07;;;;;;;18.60;80.14;94974.69;5077817;28;20036;-71
2021/09/19 08:38:24;;;;;;;8.60;5.63;;;;;;;18.98;79.36;94988.06;5084444;28;20056;-72
2021/09/19 08:40:51;;;;;;;9.70;5.65;;;;;;;19.22;78.16;94994.16;5080410;28;20056;-72
2021/09/19 08:43:19;;;;;;;7.20;4.53;;;;;;;19.27;74.76;94988.81;5070110;28;20079;-71
2021/09/19 08:45:47;;;;;;;6.57;4.75;;;;;;;19.27;76.62;94994.09;5079892;28;20048;-72
2021/09/19 08:48:17;;;;;;;7.75;4.97;;;;;;;19.20;75.98;94983.09;5081441;28;20112;-72
2021/09/19 08:50:48;;;;;;;6.43;4.68;;;;;;;18.80;80.39;94974.50;5072475;28;20056;-72
2021/09/19 08:53:15;;;;;;;7.43;4.95;;;;;;;19.10;78.25;94978.72;5067924;28;20048;-72
2021/09/19 08:55:45;;;;;;;5.53;4.38;;;;;;;19.40;76.69;94992.63;5080382;28;20060;-72
2021/09/19 08:58:12;;;;;;;7.07;4.65;;;;;;;19.51;77.57;94984.59;5074395;28;20047;-72
2021/09/19 09:00:48;;;;;;;6.72;4.32;;;;;;;19.56;76.45;94974.75;5069137;28;20430;-72
2021/09/19 09:03:22;;;;;;;6.13;4.38;;;;;;;19.69;76.04;94989.09;5076588;28;20476;-72
2021/09/19 09:05:54;;;;;;;9.30;4.88;;;;;;;19.51;77.33;94987.22;5079584;28;20044;-72
2021/09/19 09:08:22;;;;;;;7.68;4.75;;;;;;;19.77;75.18;94993.81;5072553;28;20040;-72
2021/09/19 09:10:51;;;;;;;7.15;4.82;;;;;;;20.16;73.22;94981.34;5078478;28;20134;-72
2021/09/19 09:13:21;;;;;;;6.45;4.43;;;;;;;20.51;72.33;94995.09;5063587;28;20506;-72
2021/09/19 09:16:07;;;;;;;6.38;4.05;;;;;;;20.69;72.96;94998.78;5082129;28;20409;-71
2021/09/19 09:18:39;;;;;;;6.35;4.50;;;;;;;20.89;71.06;94987.88;5079389;28;20044;-72
2021/09/19 09:21:07;;;;;;;5.95;4.32;;;;;;;21.07;70.33;94988.88;5076741;28;20113;-72
2021/09/19 09:23:43;;;;;;;6.72;4.03;;;;;;;21.35;67.87;94986.22;5074721;28;20059;-72
2021/09/19 09:26:23;;;;;;;5.63;3.88;;;;;;;21.16;68.62;94987.09;5066431;28;20133;-72
2021/09/19 09:28:52;;;;;;;5.03;3.67;;;;;;;21.37;68.92;94970.81;5073569;28;20105;-72
2021/09/19 09:31:34;;;;;;;6.95;4.43;;;;;;;21.56;68.55;94978.69;5083719;28;20059;-72
2021/09/19 09:34:11;;;;;;;5.22;4.30;;;;;;;21.84;66.98;94979.41;5072837;28;20040;-71
2021/09/19 09:37:03;;;;;;;8.30;3.90;;;;;;;21.43;65.53;94969.63;5077348;28;20418;-71
2021/09/19 09:39:38;;;;;;;4.10;3.10;;;;;;;21.42;68.06;94961.97;5059454;28;20049;-71
2021/09/19 09:42:06;;;;;;;5.00;3.67;;;;;;;21.74;67.17;94953.13;5070690;28;20059;-72
2021/09/19 09:44:39;;;;;;;4.78;3.38;;;;;;;21.96;65.80;94950.50;5068364;28;20067;-71
2021/09/19 09:47:14;;;;;;;3.92;3.08;;;;;;;21.42;68.18;94946.09;5069795;28;20056;-72
2021/09/19 09:49:52;;;;;;;3.58;2.78;;;;;;;21.42;69.26;94954.81;5073619;28;20053;-72
2021/09/19 09:52:22;;;;;;;4.65;3.45;;;;;;;21.67;66.87;94950.88;5079889;28;20498;-72
2021/09/19 09:54:58;;;;;;;4.00;2.63;;;;;;;21.89;66.73;94960.72;5083668;28;20397;-72
2021/09/19 09:57:34;;;;;;;4.10;2.83;;;;;;;21.99;64.97;94958.94;5075365;28;20103;-72
2021/09/19 10:00:09;;;;;;;4.97;2.92;;;;;;;21.96;67.51;94958.44;5071988;28;20035;-72
2021/09/19 10:02:38;;;;;;;3.00;1.98;;;;;;;21.95;65.34;94938.34;5084885;28;20105;-72
2021/09/19 10:05:08;;;;;;;3.40;2.47;;;;;;;22.07;65.49;94947.63;5083559;28;20388;-73
2021/09/19 10:07:36;;;;;;;4.18;2.47;;;;;;;22.04;65.49;94945.56;5076257;28;20040;-73
2021/09/19 10:10:05;;;;;;;3.75;2.60;;;;;;;22.09;65.64;94948.09;5070241;28;20040;-73
2021/09/19 10:12:32;;;;;;;3.67;2.85;;;;;;;21.93;65.53;94940.50;5063674;28;20036;-73
2021/09/19 10:14:59;;;;;;;4.70;3.63;;;;;;;21.89;65.31;94933.44;5076672;28;20040;-72
2021/09/19 10:17:31;;;;;;;8.38;5.28;;;;;;;22.01;65.05;94931.03;5075688;28;20040;-71
2021/09/19 10:19:59;;;;;;;7.47;4.03;;;;;;;22.17;66.10;94934.13;5081481;28;20043;-71
2021/09/19 10:22:30;;;;;;;5.70;3.83;;;;;;;22.59;63.85;94929.41;5081762;28;20452;-72
2021/09/19 10:24:58;;;;;;;4.47;3.58;;;;;;;23.50;62.62;94924.59;5076694;28;20452;-71
2021/09/19 10:27:32;;;;;;;8.13;6.00;;;;;;;24.24;60.55;94915.69;5072065;28;20798;-71
2021/09/19 10:30:02;;;;;;;4.10;2.58;;;;;;;24.67;56.75;94910.59;5083052;28;20041;-71
2021/09/19 10:32:39;;;;;;;5.28;3.75;;;;;;;24.85;55.34;94906.00;5082650;28;20059;-72
2021/09/19 10:35:15;;;;;;;4.22;3.20;;;;;;;25.11;55.82;94913.88;5065354;28;20429;-72
2021/09/19 10:37:51;;;;;;;10.45;7.07;;;;;;;25.44;54.03;94899.94;5068805;28;20044;-71
2021/09/19 10:40:31;;;;;;;8.60;6.50;;;;;;;25.76;53.68;94901.88;5078725;28;20083;-72
2021/09/19 10:42:58;;;;;;;5.90;3.28;;;;;;;25.47;53.88;94905.38;5064840;28;20118;-73
2021/09/19 10:45:37;;;;;;;4.60;3.50;;;;;;;25.72;53.84;94906.31;5064372;27;20062;-72
2021/09/19 10:48:32;;;;;;;13.55;9.05;;;;;;;25.16;53.93;94911.03;5066920;28;20206;-72
2021/09/19 10:51:07;;;;;;;9.43;6.13;;;;;;;24.87;54.66;94901.94;5058662;27;20064;-71
2021/09/19 10:53:46;;;;;;;25.00;15.35;;;;;;;25.49;54.32;94903.19;5063319;28;20040;-71
2021/09/19 10:56:13;;;;;;;11.20;6.18;;;;;;;25.04;53.89;94908.28;5065025;28;20486;-72
2021/09/19 10:58:44;;;;;;;23.13;12.02;;;;;;;24.36;58.14;94900.94;5062405;28;20075;-72
2021/09/19 11:01:31;;;;;;;17.40;10.20;;;;;;;24.36;57.93;94898.28;5064667;28;20051;-72
2021/09/19 11:04:01;;;;;;;34.03;20.13;;;;;;;24.48;56.94;94901.09;5066717;28;20123;-72
2021/09/19 11:06:34;;;;;;;10.85;7.80;;;;;;;24.91;58.03;94892.19;5064550;28;20044;-72
2021/09/19 11:09:19;;;;;;;4.45;3.28;;;;;;;25.76;53.86;94877.09;5062995;28;20067;-72
2021/09/19 11:12:09;;;;;;;9.48;6.07;;;;;;;26.33;51.95;94871.09;5062992;28;20418;-73
2021/09/19 11:15:04;;;;;;;5.68;4.30;;;;;;;26.95;50.00;94867.75;5062284;28;20037;-72
2021/09/19 11:17:43;;;;;;;8.98;6.07;;;;;;;27.10;48.31;94869.78;5063768;28;20094;-72
2021/09/19 11:20:10;;;;;;;7.50;3.67;;;;;;;27.04;50.72;94863.06;5064594;28;20048;-71
2021/09/19 11:22:48;;;;;;;4.93;2.88;;;;;;;27.32;49.50;94849.06;5064802;28;20560;-72
2021/09/19 11:25:17;;;;;;;8.60;3.78;;;;;;;27.65;48.31;94854.97;5062865;28;20040;-72
2021/09/19 11:27:48;;;;;;;5.32;3.72;;;;;;;27.62;48.00;94853.00;5064938;28;20502;-72
2021/09/19 11:30:18;;;;;;;4.13;3.22;;;;;;;27.06;48.58;94844.81;5063612;28;20126;-73
2021/09/19 11:32:45;;;;;;;4.85;3.35;;;;;;;26.69;51.32;94842.16;5068579;28;20101;-72